Time;durP1;ratioP1;P1;durP2;ratioP2;P2;SDS_P1;SDS_P2;PMS_P1;PMS_P2;Temp;Humidity;BMP_temperature;BMP_pressure;BME280_temperature;BME280_humidity;BME280_pressure;Samples;Min_cycle;Max_cycle;Signal;HPM_P1;HPM_P2
2021/12/30 00:04:42;;;;;;;33.67;8.67;;;;;12.60;100674.00;;;;10520585;28;20196;-78
2021/12/30 00:09:44;;;;;;;26.53;8.63;;;;;12.60;100680.00;;;;10578885;27;20209;-75
2021/12/30 00:14:46;;;;;;;23.20;8.43;;;;;12.60;100694.00;;;;10531421;28;20250;-76
2021/12/30 00:19:48;;;;;;;23.97;7.93;;;;;12.60;100694.00;;;;10535066;28;20246;-77
2021/12/30 00:24:50;;;;;;;21.63;7.93;;;;;12.60;100694.00;;;;10536173;28;20693;-78
2021/12/30 00:29:52;;;;;;;27.17;7.47;;;;;12.70;100682.00;;;;10534452;28;20204;-75
2021/12/30 00:34:54;;;;;;;14.47;6.50;;;;;12.70;100678.00;;;;10529044;28;20571;-75
2021/12/30 00:39:56;;;;;;;19.30;6.03;;;;;12.70;100680.00;;;;10590761;27;20236;-75
2021/12/30 00:44:58;;;;;;;13.43;4.57;;;;;12.70;100677.00;;;;10566760;27;20242;-76
2021/12/30 00:49:59;;;;;;;14.47;4.50;;;;;12.80;100697.00;;;;10540950;28;20209;-76
2021/12/30 00:55:06;;;;;;;7.43;3.00;;;;;12.90;100694.00;;;;10490657;28;20236;-76
2021/12/30 01:00:12;;;;;;;7.47;2.37;;;;;13.00;100691.00;;;;10579422;27;20187;-76
2021/12/30 01:05:14;;;;;;;10.30;2.60;;;;;13.00;100709.00;;;;10524080;28;20192;-76
2021/12/30 01:10:23;;;;;;;10.20;2.40;;;;;13.00;100713.00;;;;10564109;27;20208;-76
2021/12/30 01:15:34;;;;;;;9.77;3.07;;;;;13.10;100718.00;;;;10549297;28;20267;-76
2021/12/30 01:20:36;;;;;;;5.83;2.53;;;;;13.10;100715.00;;;;10507121;28;20245;-76
2021/12/30 01:25:38;;;;;;;7.53;2.30;;;;;13.10;100718.00;;;;10530426;28;20200;-77
2021/12/30 01:30:40;;;;;;;5.47;3.00;;;;;13.10;100726.00;;;;10531625;28;20261;-77
2021/12/30 01:35:42;;;;;;;5.93;2.47;;;;;13.10;100731.00;;;;10531962;28;20684;-77
2021/12/30 01:40:47;;;;;;;6.67;3.20;;;;;13.10;100734.00;;;;10527148;28;20192;-77
2021/12/30 01:45:50;;;;;;;4.90;2.80;;;;;13.10;100735.00;;;;10490470;28;20270;-77
2021/12/30 01:50:52;;;;;;;4.87;1.53;;;;;13.00;100732.00;;;;10519695;28;20772;-77
2021/12/30 01:55:54;;;;;;;3.80;1.30;;;;;13.10;100733.00;;;;10515864;27;20693;-77
2021/12/30 02:00:56;;;;;;;1.47;1.00;;;;;13.10;100731.00;;;;10573943;27;20195;-77
2021/12/30 02:05:59;;;;;;;2.00;1.23;;;;;13.10;100730.00;;;;10573264;27;20229;-77
2021/12/30 02:11:02;;;;;;;3.73;2.40;;;;;13.10;100719.00;;;;10547666;27;20200;-77
2021/12/30 02:16:05;;;;;;;6.73;3.90;;;;;13.10;100738.00;;;;10516094;28;20192;-77
2021/12/30 02:21:06;;;;;;;9.90;5.97;;;;;13.10;100736.00;;;;10516502;28;20222;-77
2021/12/30 02:26:15;;;;;;;6.60;4.00;;;;;13.10;100748.00;;;;10551243;28;20598;-77
2021/12/30 02:31:21;;;;;;;6.10;3.33;;;;;13.20;100737.00;;;;10518242;28;20299;-77
2021/12/30 02:36:27;;;;;;;7.23;2.93;;;;;13.20;100731.00;;;;10508376;28;20213;-77
2021/12/30 02:41:33;;;;;;;4.80;3.07;;;;;13.20;100738.00;;;;10546597;28;20184;-77
2021/12/30 02:46:37;;;;;;;5.63;3.33;;;;;13.20;100737.00;;;;10534757;28;20639;-77
2021/12/30 02:51:39;;;;;;;5.63;3.30;;;;;13.20;100738.00;;;;10525954;28;20207;-77
2021/12/30 02:56:46;;;;;;;5.87;3.60;;;;;13.30;100755.00;;;;10527734;28;20282;-77
2021/12/30 03:01:49;;;;;;;7.23;4.20;;;;;13.30;100750.00;;;;10531100;28;20195;-77
2021/12/30 03:06:52;;;;;;;5.40;4.23;;;;;13.40;100755.00;;;;10493408;28;20189;-77
2021/12/30 03:11:56;;;;;;;6.67;4.63;;;;;13.40;100757.00;;;;10525447;28;20189;-76
2021/12/30 03:16:58;;;;;;;6.30;3.80;;;;;13.50;100760.00;;;;10508791;28;20652;-77
2021/12/30 03:22:00;;;;;;;4.90;4.30;;;;;13.50;100758.00;;;;10515695;28;20196;-77
2021/12/30 03:27:06;;;;;;;3.63;2.57;;;;;13.60;100777.00;;;;10498601;28;20212;-76
2021/12/30 03:32:08;;;;;;;1.40;1.30;;;;;13.70;100784.00;;;;10544444;28;20192;-77
2021/12/30 03:37:09;;;;;;;1.63;1.10;;;;;13.70;100784.00;;;;10538170;28;20212;-77
2021/12/30 03:42:11;;;;;;;0.80;0.80;;;;;13.80;100788.00;;;;10513625;28;20240;-77
2021/12/30 03:47:16;;;;;;;0.70;0.70;;;;;13.90;100784.00;;;;10507185;28;20196;-76
2021/12/30 03:52:24;;;;;;;1.90;0.50;;;;;13.90;100787.00;;;;10552988;28;20250;-77
2021/12/30 03:57:26;;;;;;;0.67;0.50;;;;;14.00;100797.00;;;;10522725;28;20192;-77
2021/12/30 04:02:28;;;;;;;1.53;0.50;;;;;14.00;100800.00;;;;10518967;28;20223;-77
2021/12/30 04:07:30;;;;;;;0.90;0.50;;;;;14.00;100795.00;;;;10535981;28;20216;-77
2021/12/30 04:12:32;;;;;;;0.33;0.33;;;;;14.00;100803.00;;;;10510308;28;20185;-76
2021/12/30 04:17:34;;;;;;;0.23;0.23;;;;;14.00;100811.00;;;;10526649;28;20200;-76
2021/12/30 04:22:40;;;;;;;0.50;0.40;;;;;14.00;100811.00;;;;10516104;28;20189;-76
2021/12/30 04:27:43;;;;;;;0.40;0.40;;;;;14.10;100827.00;;;;10524508;28;20236;-76
2021/12/30 04:32:45;;;;;;;0.40;0.40;;;;;14.00;100832.00;;;;10516007;28;20253;-76
2021/12/30 04:37:47;;;;;;;0.75;0.52;;;;;14.00;100835.00;;;;10555359;27;20729;-76
2021/12/30 04:42:49;;;;;;;0.80;0.80;;;;;14.00;100845.00;;;;10520740;28;20193;-76
2021/12/30 04:47:51;;;;;;;2.00;1.80;;;;;14.00;100867.00;;;;10507949;28;20212;-76
2021/12/30 04:52:53;;;;;;;3.37;2.30;;;;;14.00;100861.00;;;;10520278;28;20188;-76
2021/12/30 04:57:55;;;;;;;3.20;2.53;;;;;14.00;100838.00;;;;10542703;27;20192;-76
2021/12/30 05:08:03;;;;;;;3.85;2.50;;;;;13.90;100872.00;;;;10549063;28;20207;-76
2021/12/30 05:13:06;;;;;;;3.27;2.43;;;;;13.80;100876.00;;;;10531992;28;20192;-75
2021/12/30 05:18:11;;;;;;;3.30;2.37;;;;;13.90;100867.00;;;;10523503;28;20189;-76
2021/12/30 05:23:13;;;;;;;2.20;1.60;;;;;13.90;100871.00;;;;10489501;28;20201;-76
2021/12/30 05:28:15;;;;;;;1.70;1.60;;;;;13.90;100869.00;;;;10525844;28;20201;-76
2021/12/30 05:33:17;;;;;;;1.95;1.30;;;;;13.90;100866.00;;;;10522639;28;20181;-75
2021/12/30 05:38:19;;;;;;;2.67;1.40;;;;;13.90;100867.00;;;;10557978;27;20180;-76
2021/12/30 05:43:21;;;;;;;3.63;1.43;;;;;13.90;100880.00;;;;10624898;27;20232;-76
2021/12/30 05:48:23;;;;;;;1.60;1.50;;;;;13.90;100880.00;;;;10521877;28;20274;-76
2021/12/30 05:53:26;;;;;;;2.60;2.20;;;;;13.90;100887.00;;;;10576297;27;20192;-76
2021/12/30 05:58:28;;;;;;;6.03;3.40;;;;;13.90;100883.00;;;;10506724;28;20196;-76
2021/12/30 06:03:31;;;;;;;4.32;3.70;;;;;13.90;100877.00;;;;10547175;28;20181;-76
2021/12/30 06:08:34;;;;;;;4.53;3.37;;;;;13.90;100875.00;;;;10563550;28;20212;-76
2021/12/30 06:13:36;;;;;;;3.90;3.50;;;;;13.80;100887.00;;;;10521309;28;20192;-76
2021/12/30 06:18:38;;;;;;;4.07;2.70;;;;;13.80;100887.00;;;;10546399;28;20211;-76
2021/12/30 06:23:40;;;;;;;4.07;2.37;;;;;13.90;100894.00;;;;10545829;28;20192;-75
2021/12/30 06:28:42;;;;;;;5.47;2.60;;;;;13.90;100889.00;;;;10529456;28;20261;-76
2021/12/30 06:33:44;;;;;;;2.13;1.93;;;;;13.90;100901.00;;;;10501565;28;20216;-76
2021/12/30 06:38:46;;;;;;;3.77;2.27;;;;;13.90;100904.00;;;;10514719;27;20197;-76
2021/12/30 06:43:53;;;;;;;3.47;2.08;;;;;13.90;100898.00;;;;10514574;28;20245;-76
2021/12/30 06:48:55;;;;;;;4.37;2.17;;;;;13.90;100915.00;;;;10486870;28;20205;-76
2021/12/30 06:53:57;;;;;;;5.67;2.60;;;;;13.90;100921.00;;;;10488539;27;20204;-76
2021/12/30 06:58:59;;;;;;;3.40;2.77;;;;;13.90;100928.00;;;;10536773;27;20253;-76
2021/12/30 07:04:02;;;;;;;3.97;3.27;;;;;13.90;100933.00;;;;10510848;28;20188;-76
2021/12/30 07:09:04;;;;;;;3.30;3.00;;;;;13.90;100956.00;;;;10546544;27;20216;-76
2021/12/30 07:14:06;;;;;;;3.50;2.60;;;;;13.90;100959.00;;;;10522773;28;20644;-75
2021/12/30 07:19:08;;;;;;;3.57;2.50;;;;;13.90;100954.00;;;;10554100;27;20276;-75
2021/12/30 07:24:10;;;;;;;4.73;2.80;;;;;13.90;100967.00;;;;10522096;27;20238;-75
2021/12/30 07:29:12;;;;;;;4.70;3.00;;;;;13.90;100969.00;;;;10516705;28;20674;-74
2021/12/30 07:34:14;;;;;;;3.07;2.53;;;;;13.90;100986.00;;;;10569173;27;20261;-75
2021/12/30 07:39:16;;;;;;;4.00;2.40;;;;;13.90;100981.00;;;;10499001;28;20280;-75
2021/12/30 07:44:20;;;;;;;5.60;3.20;;;;;13.90;100988.00;;;;10492523;28;20648;-75
2021/12/30 07:49:41;;;;;;;4.73;2.37;;;;;13.90;100999.00;;;;10535304;28;20215;-75
2021/12/30 07:54:44;;;;;;;3.75;2.53;;;;;13.90;101006.00;;;;10529548;28;20223;-75
2021/12/30 07:59:46;;;;;;;9.40;2.70;;;;;13.90;101009.00;;;;10533310;27;20191;-75
2021/12/30 08:04:47;;;;;;;6.13;4.20;;;;;14.00;101023.00;;;;10550840;28;20192;-75
2021/12/30 08:09:50;;;;;;;12.45;4.10;;;;;14.00;101019.00;;;;10514934;28;20238;-75
2021/12/30 08:14:51;;;;;;;4.53;3.63;;;;;14.00;101029.00;;;;10554553;27;20188;-75
2021/12/30 08:19:53;;;;;;;7.43;3.90;;;;;14.10;101027.00;;;;10533070;27;20197;-75
2021/12/30 08:24:55;;;;;;;6.17;3.70;;;;;14.20;101049.00;;;;10541957;27;20192;-75
2021/12/30 08:29:57;;;;;;;4.97;3.87;;;;;14.30;101050.00;;;;10579715;28;20201;-75
2021/12/30 08:34:59;;;;;;;4.97;3.70;;;;;14.40;101047.00;;;;10550346;27;20772;-75
2021/12/30 08:40:08;;;;;;;8.35;4.18;;;;;14.50;101045.00;;;;10580459;27;20218;-75
2021/12/30 08:45:11;;;;;;;10.15;3.97;;;;;14.70;101061.00;;;;10548313;27;20664;-74
2021/12/30 08:50:15;;;;;;;6.10;3.78;;;;;14.80;101068.00;;;;10551494;28;20250;-74
2021/12/30 08:55:17;;;;;;;8.38;3.50;;;;;14.70;101050.00;;;;10518403;28;20672;-75
2021/12/30 09:00:25;;;;;;;9.60;3.58;;;;;14.70;101051.00;;;;10524467;28;20188;-75
2021/12/30 09:05:27;;;;;;;9.50;3.58;;;;;14.60;101061.00;;;;10513476;27;20180;-75
2021/12/30 09:10:35;;;;;;;4.93;3.30;;;;;14.50;101053.00;;;;10488696;28;20254;-75
2021/12/30 09:15:37;;;;;;;11.18;3.60;;;;;14.50;101071.00;;;;10519986;28;20593;-75
2021/12/30 09:20:41;;;;;;;8.52;3.10;;;;;14.40;101067.00;;;;10546443;28;20208;-75
2021/12/30 09:25:43;;;;;;;10.90;4.10;;;;;14.30;101076.00;;;;10530457;28;20233;-75
2021/12/30 09:30:45;;;;;;;8.85;3.80;;;;;14.30;101073.00;;;;10548938;27;20242;-75
2021/12/30 09:35:48;;;;;;;8.30;3.77;;;;;14.30;101081.00;;;;10536824;28;20239;-75
2021/12/30 09:40:52;;;;;;;7.38;3.22;;;;;14.40;101086.00;;;;10552905;27;20282;-75
2021/12/30 09:45:54;;;;;;;9.57;3.00;;;;;14.50;101095.00;;;;10514441;28;20196;-75
2021/12/30 09:50:56;;;;;;;5.47;3.97;;;;;14.60;101089.00;;;;10565264;28;20212;-75
2021/12/30 09:55:59;;;;;;;7.68;3.60;;;;;14.60;101091.00;;;;10524644;28;20200;-75
2021/12/30 10:01:04;;;;;;;6.03;3.63;;;;;14.60;101110.00;;;;10505293;28;20184;-75
2021/12/30 10:06:13;;;;;;;6.22;3.28;;;;;14.70;101117.00;;;;10532367;28;20196;-75
2021/12/30 10:11:14;;;;;;;5.22;3.30;;;;;14.70;101111.00;;;;10567661;27;20671;-75
2021/12/30 10:16:17;;;;;;;3.95;3.25;;;;;14.90;101109.00;;;;10512064;28;20204;-75
2021/12/30 10:21:26;;;;;;;8.68;3.50;;;;;15.30;101114.00;;;;10505515;27;20356;-75
2021/12/30 10:26:28;;;;;;;9.95;3.42;;;;;15.40;101111.00;;;;10552241;27;20204;-75
2021/12/30 10:31:32;;;;;;;6.97;3.00;;;;;15.60;101100.00;;;;10526721;28;20196;-75
2021/12/30 10:36:34;;;;;;;7.55;3.17;;;;;15.70;101103.00;;;;10503907;28;20685;-76
2021/12/30 10:41:37;;;;;;;8.95;3.42;;;;;15.70;101105.00;;;;10513607;28;20187;-75
2021/12/30 10:46:39;;;;;;;5.45;2.95;;;;;15.80;101103.00;;;;10562187;28;20258;-75
2021/12/30 10:51:44;;;;;;;7.28;3.50;;;;;15.90;101114.00;;;;10586143;28;20212;-75
2021/12/30 10:56:58;;;;;;;5.32;3.38;;;;;16.10;101114.00;;;;10538241;28;20195;-75
2021/12/30 11:02:17;;;;;;;6.05;3.05;;;;;16.20;101128.00;;;;10530226;28;20193;-75
2021/12/30 11:07:21;;;;;;;4.82;3.00;;;;;16.00;101123.00;;;;10517684;28;20237;-75
2021/12/30 11:12:31;;;;;;;6.47;3.28;;;;;15.90;101125.00;;;;10509798;28;20200;-75
2021/12/30 11:17:35;;;;;;;5.60;2.97;;;;;15.80;101124.00;;;;10532526;28;20192;-75
2021/12/30 11:22:39;;;;;;;7.38;3.88;;;;;15.80;101120.00;;;;10532013;28;20604;-75
2021/12/30 11:27:41;;;;;;;6.47;3.50;;;;;15.70;101119.00;;;;10543425;28;20204;-75
2021/12/30 11:32:47;;;;;;;9.05;3.13;;;;;15.50;101116.00;;;;10526788;28;20671;-75
2021/12/30 11:37:50;;;;;;;5.28;2.88;;;;;15.50;101115.00;;;;10549779;27;20223;-75
2021/12/30 11:42:59;;;;;;;5.07;2.80;;;;;15.70;101109.00;;;;10515127;28;20196;-75
2021/12/30 11:48:06;;;;;;;5.60;3.03;;;;;15.80;101099.00;;;;10546490;28;20237;-75
2021/12/30 11:53:24;;;;;;;7.07;3.65;;;;;15.80;101091.00;;;;10518840;27;20230;-76
2021/12/30 11:58:29;;;;;;;6.30;3.50;;;;;15.80;101100.00;;;;10546547;27;20180;-75
2021/12/30 12:03:50;;;;;;;7.25;3.60;;;;;15.90;101112.00;;;;10559000;27;20203;-75
2021/12/30 12:09:27;;;;;;;8.75;3.22;;;;;16.10;101116.00;;;;10543090;27;20593;-76
2021/12/30 12:14:41;;;;;;;6.00;2.80;;;;;16.10;101115.00;;;;10528818;28;20184;-76
2021/12/30 12:19:53;;;;;;;5.10;2.90;;;;;15.80;101115.00;;;;10540442;28;20176;-75
2021/12/30 12:25:18;;;;;;;8.23;3.70;;;;;15.70;101117.00;;;;10535066;28;20246;-75
2021/12/30 12:30:32;;;;;;;9.63;3.13;;;;;15.70;101109.00;;;;10523668;28;20254;-76
2021/12/30 12:35:40;;;;;;;6.15;3.08;;;;;15.80;101116.00;;;;10514336;28;20314;-75
2021/12/30 12:40:51;;;;;;;7.32;3.17;;;;;15.70;101110.00;;;;10525609;28;20203;-76
2021/12/30 12:45:57;;;;;;;6.07;3.13;;;;;15.70;101120.00;;;;10511604;28;20247;-75
2021/12/30 12:51:07;;;;;;;6.07;2.50;;;;;15.60;101130.00;;;;10522848;27;20197;-75
2021/12/30 12:56:12;;;;;;;5.65;2.95;;;;;15.50;101122.00;;;;10510285;28;20216;-76
2021/12/30 13:01:20;;;;;;;5.80;3.17;;;;;15.20;101128.00;;;;10514800;28;20184;-76
2021/12/30 13:06:25;;;;;;;7.03;2.90;;;;;15.00;101144.00;;;;10562449;28;20817;-76
2021/12/30 13:11:37;;;;;;;8.02;3.47;;;;;14.90;101134.00;;;;10519776;28;20263;-76
2021/12/30 13:16:40;;;;;;;10.55;4.45;;;;;15.30;101126.00;;;;10515351;27;20627;-77
2021/12/30 13:21:46;;;;;;;11.25;4.47;;;;;15.50;101135.00;;;;10538393;28;20286;-76
2021/12/30 13:26:48;;;;;;;9.60;4.00;;;;;15.30;101139.00;;;;10534530;27;20253;-77
2021/12/30 13:32:06;;;;;;;10.00;4.53;;;;;15.20;101144.00;;;;10559633;28;20683;-77
2021/12/30 13:37:10;;;;;;;9.57;4.53;;;;;15.00;101143.00;;;;10551598;28;20212;-77
2021/12/30 13:42:16;;;;;;;8.70;4.00;;;;;15.00;101128.00;;;;10527180;28;20249;-76
2021/12/30 13:47:35;;;;;;;7.70;4.18;;;;;15.00;101134.00;;;;10548584;28;20215;-76
2021/12/30 13:52:40;;;;;;;11.60;4.03;;;;;15.00;101150.00;;;;10539450;28;20290;-76
2021/12/30 13:58:13;;;;;;;5.30;3.58;;;;;14.70;101140.00;;;;10547014;28;20237;-76
2021/12/30 14:03:36;;;;;;;5.82;3.90;;;;;14.50;101147.00;;;;10509505;28;20239;-76
2021/12/30 14:08:48;;;;;;;9.13;3.50;;;;;14.40;101144.00;;;;10529759;28;20667;-76
2021/12/30 14:13:51;;;;;;;9.37;4.13;;;;;14.30;101148.00;;;;10538152;28;20192;-76
2021/12/30 14:18:55;;;;;;;12.25;4.03;;;;;14.20;101157.00;;;;10513463;28;20196;-76
2021/12/30 14:24:10;;;;;;;8.30;3.88;;;;;14.10;101157.00;;;;10508640;28;20725;-76
2021/12/30 14:29:15;;;;;;;10.68;4.38;;;;;14.10;101164.00;;;;10543255;28;20250;-76
2021/12/30 14:34:30;;;;;;;8.93;3.93;;;;;14.10;101177.00;;;;10529995;28;20258;-76
2021/12/30 14:39:39;;;;;;;7.53;3.63;;;;;14.10;101177.00;;;;10525045;27;20237;-76
2021/12/30 14:44:46;;;;;;;9.13;3.77;;;;;14.10;101187.00;;;;10520495;28;20300;-76
2021/12/30 14:50:04;;;;;;;10.75;4.15;;;;;14.10;101183.00;;;;10515031;28;20252;-76
2021/12/30 14:55:10;;;;;;;8.52;3.53;;;;;14.10;101186.00;;;;10527581;28;20183;-76
2021/12/30 15:00:16;;;;;;;10.50;3.15;;;;;14.10;101179.00;;;;10538649;28;20176;-76
2021/12/30 15:05:20;;;;;;;9.05;3.80;;;;;14.10;101178.00;;;;10525777;28;20192;-76
2021/12/30 15:10:23;;;;;;;10.85;4.22;;;;;14.10;101192.00;;;;10540519;28;20196;-76
2021/12/30 15:15:27;;;;;;;10.13;4.43;;;;;14.10;101192.00;;;;10535059;28;21096;-76
2021/12/30 15:20:31;;;;;;;8.40;3.80;;;;;14.10;101197.00;;;;10538012;28;20196;-75
2021/12/30 15:25:34;;;;;;;14.83;5.10;;;;;14.10;101210.00;;;;10549603;28;20204;-76
2021/12/30 15:30:36;;;;;;;9.18;3.53;;;;;14.00;101217.00;;;;10507830;28;20220;-76
2021/12/30 15:35:40;;;;;;;5.85;3.97;;;;;13.90;101214.00;;;;10516285;28;20247;-76
2021/12/30 15:40:44;;;;;;;5.80;3.63;;;;;13.90;101238.00;;;;10564511;28;20263;-75
2021/12/30 15:45:46;;;;;;;8.00;4.13;;;;;13.90;101244.00;;;;10500815;28;20644;-75
2021/12/30 15:50:48;;;;;;;11.17;4.23;;;;;13.80;101248.00;;;;10532601;27;20512;-76
2021/12/30 15:55:51;;;;;;;5.67;3.57;;;;;13.70;101264.00;;;;10538603;28;20666;-76
2021/12/30 16:00:59;;;;;;;7.53;3.90;;;;;13.60;101286.00;;;;10510940;28;20192;-76
2021/12/30 16:06:02;;;;;;;6.43;4.27;;;;;13.60;101285.00;;;;10512066;28;20645;-77
2021/12/30 16:11:04;;;;;;;7.47;4.50;;;;;13.50;101287.00;;;;10533817;27;20193;-77
2021/12/30 16:16:07;;;;;;;8.07;4.60;;;;;13.50;101296.00;;;;10530533;28;20251;-77
2021/12/30 16:21:08;;;;;;;8.83;4.77;;;;;13.50;101287.00;;;;10514616;28;20294;-77
2021/12/30 16:26:11;;;;;;;7.05;5.65;;;;;13.50;101305.00;;;;10546365;28;20196;-78
2021/12/30 16:31:14;;;;;;;6.37;4.77;;;;;13.60;101302.00;;;;10500075;28;20208;-77
2021/12/30 16:36:16;;;;;;;6.30;4.90;;;;;13.60;101308.00;;;;10531820;28;20247;-77
2021/12/30 16:41:18;;;;;;;9.03;5.93;;;;;13.60;101317.00;;;;10524454;28;20317;-77
2021/12/30 16:46:22;;;;;;;9.87;6.07;;;;;13.60;101317.00;;;;10526654;28;20188;-77
2021/12/30 16:51:25;;;;;;;10.80;5.57;;;;;13.60;101314.00;;;;10518069;28;20533;-77
2021/12/30 16:56:27;;;;;;;11.17;6.47;;;;;13.60;101313.00;;;;10526184;27;20207;-77
2021/12/30 17:01:30;;;;;;;11.30;6.37;;;;;13.60;101321.00;;;;10572086;27;20225;-77
2021/12/30 17:06:34;;;;;;;8.77;5.03;;;;;13.60;101325.00;;;;10516664;28;20197;-77
2021/12/30 17:11:36;;;;;;;8.83;5.13;;;;;13.60;101340.00;;;;10521945;28;20205;-77
2021/12/30 17:16:38;;;;;;;8.87;5.50;;;;;13.60;101344.00;;;;10504026;28;20196;-77
2021/12/30 17:21:40;;;;;;;7.10;4.57;;;;;13.50;101339.00;;;;10510335;28;20224;-78
2021/12/30 17:26:42;;;;;;;7.13;4.37;;;;;13.50;101344.00;;;;10527490;28;20205;-78
2021/12/30 17:31:44;;;;;;;5.43;4.43;;;;;13.40;101336.00;;;;10545589;27;21623;-79
2021/12/30 17:36:46;;;;;;;5.30;3.93;;;;;13.40;101351.00;;;;10528177;28;20231;-79
2021/12/30 17:41:48;;;;;;;5.40;3.80;;;;;13.40;101338.00;;;;10513371;28;20192;-80
2021/12/30 17:46:50;;;;;;;4.00;3.27;;;;;13.40;101336.00;;;;10501332;27;20603;-79
2021/12/30 17:51:53;;;;;;;4.63;3.40;;;;;13.40;101343.00;;;;10495398;28;20223;-78
2021/12/30 17:56:55;;;;;;;6.83;4.63;;;;;13.40;101336.00;;;;10538880;28;20648;-78
2021/12/30 18:01:58;;;;;;;5.17;4.53;;;;;13.50;101352.00;;;;10540479;28;20181;-79
2021/12/30 18:07:00;;;;;;;7.23;5.40;;;;;13.40;101352.00;;;;10528114;27;20223;-79
2021/12/30 18:12:04;;;;;;;8.13;5.90;;;;;13.40;101358.00;;;;10504780;28;20611;-80
2021/12/30 18:17:06;;;;;;;12.33;6.20;;;;;13.40;101365.00;;;;10481981;28;20200;-79
2021/12/30 18:22:08;;;;;;;10.80;6.20;;;;;13.40;101364.00;;;;10492375;28;20197;-78
2021/12/30 18:27:10;;;;;;;13.37;7.37;;;;;13.40;101364.00;;;;10497572;28;21474;-79
2021/12/30 18:32:13;;;;;;;14.37;8.33;;;;;13.40;101379.00;;;;10504854;28;20209;-79
2021/12/30 18:37:15;;;;;;;15.33;8.33;;;;;13.30;101372.00;;;;10504290;28;20208;-79
2021/12/30 18:42:17;;;;;;;12.60;7.97;;;;;13.30;101368.00;;;;10489686;28;20196;-80
2021/12/30 18:47:20;;;;;;;17.07;7.03;;;;;13.30;101376.00;;;;10518066;28;20195;-79
2021/12/30 18:52:22;;;;;;;10.17;6.13;;;;;13.30;101389.00;;;;10503431;28;20204;-80
2021/12/30 18:57:24;;;;;;;9.93;6.30;;;;;13.30;101388.00;;;;10508734;28;20725;-78
2021/12/30 19:02:26;;;;;;;9.40;5.77;;;;;13.30;101396.00;;;;10542717;28;20189;-78
2021/12/30 19:07:30;;;;;;;15.20;6.30;;;;;13.30;101399.00;;;;10519461;28;20199;-79
2021/12/30 19:12:32;;;;;;;10.60;5.70;;;;;13.30;101399.00;;;;10515182;28;20205;-78
2021/12/30 19:17:36;;;;;;;13.90;6.03;;;;;13.30;101395.00;;;;10500731;28;20241;-79
2021/12/30 19:22:39;;;;;;;12.77;5.97;;;;;13.20;101409.00;;;;10503393;28;20196;-79
2021/12/30 19:27:41;;;;;;;11.37;5.77;;;;;13.20;101406.00;;;;10533865;28;20196;-78
2021/12/30 19:32:43;;;;;;;10.53;5.10;;;;;13.20;101414.00;;;;10500639;28;20211;-79
2021/12/30 19:37:47;;;;;;;9.90;4.70;;;;;13.10;101415.00;;;;10504779;28;20292;-78
2021/12/30 19:42:49;;;;;;;9.87;5.03;;;;;13.10;101404.00;;;;10500861;28;20206;-78
2021/12/30 19:47:52;;;;;;;11.77;4.40;;;;;13.20;101419.00;;;;10521442;28;20224;-78
2021/12/30 19:52:54;;;;;;;15.37;4.47;;;;;13.20;101410.00;;;;10544984;28;20652;-78
2021/12/30 19:57:55;;;;;;;12.53;4.03;;;;;13.20;101408.00;;;;10523712;28;20283;-78
2021/12/30 20:02:59;;;;;;;12.30;3.77;;;;;13.30;101416.00;;;;10517819;28;20188;-78
2021/12/30 20:08:03;;;;;;;15.77;4.67;;;;;13.30;101411.00;;;;10494557;27;20563;-78
2021/12/30 20:13:06;;;;;;;10.17;3.50;;;;;13.40;101412.00;;;;10512074;28;20211;-78
2021/12/30 20:18:08;;;;;;;13.40;3.43;;;;;13.40;101408.00;;;;10518920;27;20789;-78
2021/12/30 20:23:11;;;;;;;10.60;3.10;;;;;13.50;101422.00;;;;10512088;27;20200;-79
2021/12/30 20:28:14;;;;;;;9.27;3.30;;;;;13.50;101429.00;;;;10513044;28;20203;-78
2021/12/30 20:33:17;;;;;;;11.63;2.73;;;;;13.50;101428.00;;;;10548985;27;20208;-78
2021/12/30 20:38:22;;;;;;;11.07;3.70;;;;;13.50;101434.00;;;;10528663;28;20238;-79
2021/12/30 20:43:24;;;;;;;13.97;3.77;;;;;13.50;101438.00;;;;10563613;28;20255;-78
2021/12/30 20:48:28;;;;;;;11.00;2.77;;;;;13.60;101417.00;;;;10512401;28;20204;-79
2021/12/30 20:53:31;;;;;;;7.43;2.67;;;;;13.60;101416.00;;;;10543465;27;20219;-78
2021/12/30 20:58:33;;;;;;;8.63;2.70;;;;;13.70;101420.00;;;;10537507;28;20185;-78
2021/12/30 21:03:35;;;;;;;6.63;2.33;;;;;13.70;101428.00;;;;10543772;28;20275;-78
2021/12/30 21:08:38;;;;;;;7.77;2.27;;;;;13.70;101431.00;;;;10559562;28;20181;-78
2021/12/30 21:13:40;;;;;;;5.93;2.47;;;;;13.70;101432.00;;;;10528746;28;20250;-78
2021/12/30 21:18:42;;;;;;;7.37;1.83;;;;;13.70;101426.00;;;;10558155;28;20225;-77
2021/12/30 21:23:49;;;;;;;2.87;1.63;;;;;13.70;101422.00;;;;10523838;28;20202;-78
2021/12/30 21:29:05;;;;;;;7.97;2.00;;;;;13.70;101423.00;;;;10529048;28;20196;-78
2021/12/30 21:34:31;;;;;;;5.50;1.97;;;;;13.70;101431.00;;;;10550058;28;20196;-77
2021/12/30 21:39:34;;;;;;;6.03;2.00;;;;;13.70;101438.00;;;;10522239;28;20235;-78
2021/12/30 21:44:36;;;;;;;6.33;1.80;;;;;13.80;101436.00;;;;10517956;28;20190;-78
2021/12/30 21:49:38;;;;;;;6.73;2.20;;;;;13.80;101434.00;;;;10542365;28;20188;-77
2021/12/30 21:54:40;;;;;;;4.90;1.67;;;;;13.80;101435.00;;;;10536858;28;20189;-78
2021/12/30 21:59:43;;;;;;;6.97;2.50;;;;;13.80;101432.00;;;;10523330;27;20623;-78
2021/12/30 22:04:47;;;;;;;5.50;2.13;;;;;13.80;101434.00;;;;10539206;28;20207;-78
2021/12/30 22:09:49;;;;;;;4.90;2.17;;;;;13.80;101431.00;;;;10538478;27;20683;-78
2021/12/30 22:14:51;;;;;;;4.55;1.80;;;;;13.80;101423.00;;;;10508323;28;20569;-78
2021/12/30 22:19:53;;;;;;;4.50;1.97;;;;;13.80;101408.00;;;;10532736;28;20271;-78
2021/12/30 22:24:55;;;;;;;1.97;1.63;;;;;13.80;101414.00;;;;10529843;27;20192;-77
2021/12/30 22:29:57;;;;;;;3.97;1.63;;;;;13.80;101406.00;;;;10520049;28;20216;-78
2021/12/30 22:34:59;;;;;;;2.87;1.60;;;;;13.80;101401.00;;;;10480869;28;20213;-78
2021/12/30 22:40:03;;;;;;;3.50;1.67;;;;;13.70;101407.00;;;;10535302;28;20183;-78
2021/12/30 22:45:07;;;;;;;7.07;1.80;;;;;13.70;101410.00;;;;10555883;28;20276;-77
2021/12/30 22:50:11;;;;;;;3.87;1.77;;;;;13.60;101414.00;;;;10496159;28;20247;-78
2021/12/30 22:55:14;;;;;;;6.37;2.07;;;;;13.60;101409.00;;;;10505921;28;20193;-77
2021/12/30 23:00:27;;;;;;;2.57;1.70;;;;;13.70;101413.00;;;;10494176;28;20189;-78
2021/12/30 23:05:30;;;;;;;7.00;2.13;;;;;13.70;101402.00;;;;10504538;28;20196;-77
2021/12/30 23:10:31;;;;;;;5.30;1.63;;;;;13.80;101424.00;;;;10502749;28;20204;-78
2021/12/30 23:15:34;;;;;;;4.63;1.80;;;;;13.80;101423.00;;;;10523622;28;20531;-77
2021/12/30 23:20:39;;;;;;;4.63;1.70;;;;;13.70;101409.00;;;;10512040;28;20200;-77
2021/12/30 23:25:41;;;;;;;4.80;2.50;;;;;13.70;101398.00;;;;10530140;28;20200;-77
2021/12/30 23:30:44;;;;;;;4.87;1.63;;;;;13.70;101396.00;;;;10513185;28;20212;-78
2021/12/30 23:35:46;;;;;;;3.87;1.90;;;;;13.70;101396.00;;;;10509963;28;20212;-77
2021/12/30 23:40:49;;;;;;;5.27;1.83;;;;;13.60;101398.00;;;;10551923;27;20191;-78
2021/12/30 23:45:51;;;;;;;5.20;1.93;;;;;13.60;101394.00;;;;10596844;27;20686;-77
2021/12/30 23:50:52;;;;;;;6.83;2.27;;;;;13.60;101393.00;;;;10579397;27;20239;-77
2021/12/30 23:55:54;;;;;;;7.83;2.20;;;;;13.60;101399.00;;;;10507720;28;20197;-78
